Tropical Cyclones
[Index]
Main Index Home Page Stock Weather Photos Extreme Storms Discussion Storm News and Storm Chasing Reports Tropical Cyclones / Hurricanes / Typhoons Weather Data and Links Wild Fires / Bushfires Weather Observation Techniques Weather Picture Catalogue Tornado Pictures and Reports Stock Video Footage and DVDs for sale
Season 2011-2012 Tropical Cyclone KOJI-JONI Track Map
Season 2011-2012 Summaries: [BoM-AU] [JTWC-AU] [JTWC-SIO] [JTWC-SPAC] [JTWC-SH]
<<- Previous TC | JTWC 2011-2012 Season | Next TC ->>

click for intensity scale information  Lat/long Grid: Show Hide

 Date Labels: Show Hide

Joint Typhoon Warning Centre Cyclone Data

Name: KOJI-JONI

06 Mar 2012 06:00 UTC to 12 Mar 2012 18:00 UTC

    date/time    lat    long     hPa   cat  kts
2012-03-06 06   12.1   100.0    1007         20          
2012-03-06 12   12.3    98.7    1004         25          
2012-03-06 18   13.4    98.0    1004         25          
2012-03-07 00   14.5    97.3    1000         30          
2012-03-07 06   14.9    95.8     996         35          
2012-03-07 12   14.9    94.3     996         35          
2012-03-07 18   15.3    92.9     996         35          
2012-03-08 00   15.6    91.5     993    1    40          
2012-03-08 06   16.0    90.4     989    1    45          
2012-03-08 12   16.3    89.3     985    1    50          
2012-03-08 18   16.7    88.1     982    2    55          
2012-03-09 00   17.0    87.0     978    2    60          
2012-03-09 00   17.0    87.0     978    2    60          
2012-03-09 06   17.2    85.9     978    2    60          
2012-03-09 06   17.2    85.9     978    2    60          
2012-03-09 12   17.5    84.8     974    2    65          
2012-03-09 12   17.5    84.8     974    2    65          
2012-03-09 18   18.4    83.5     974    2    65          
2012-03-09 18   18.4    83.5     974    2    65          
2012-03-10 00   19.0    82.2     967    3    75          
2012-03-10 00   19.0    82.2     967    3    75          
2012-03-10 00   19.0    82.2     967    3    75          
2012-03-10 06   19.7    81.1     967    3    75          
2012-03-10 06   19.7    81.1     967    3    75          
2012-03-10 06   19.7    81.1     967    3    75          
2012-03-10 12   20.4    80.1     970    2    70          
2012-03-10 12   20.4    80.1     970    2    70          
2012-03-10 12   20.4    80.1     970    2    70          
2012-03-10 18   21.0    79.5     970    2    70          
2012-03-10 18   21.0    79.5     970    2    70          
2012-03-10 18   21.0    79.5     970    2    70          
2012-03-11 00   21.9    79.3     978    2    60          
2012-03-11 00   21.9    79.3     978    2    60          
2012-03-11 06   22.9    79.3     982    2    55          
2012-03-11 06   22.9    79.3     982    2    55          
2012-03-11 12   23.8    79.9     985    1    50          
2012-03-11 18   25.3    80.5     989    1    45          
2012-03-12 00   26.6    80.5     996         35          
2012-03-12 06   27.6    81.7    1000         30          
2012-03-12 12   29.1    82.6     996         35          
2012-03-12 18   30.4    84.2     996         35          
Winds are 1-min average.

Tropical cyclone tracks developed by Michael Bath using data from the Joint Typhoon Warning Centre Best Tracks and Google Maps.


[Australian Severe Weather index] [Copyright Notice] [Email Contacts] [Search This Site] [Privacy Policy]
Document: tropical_cyclone_koji-joni.htm Updated: 28 June 2017